createdAt,value
2019-04-27T00:01:56.943Z,15.57
2019-04-27T00:04:33.331Z,15.39
2019-04-27T00:07:07.112Z,15.18
2019-04-27T00:09:50.205Z,15.07
2019-04-27T00:12:22.423Z,15.10
2019-04-27T00:14:54.448Z,15.18
2019-04-27T00:17:43.535Z,15.36
2019-04-27T00:20:13.131Z,15.50
2019-04-27T00:22:48.209Z,15.58
2019-04-27T00:25:19.753Z,15.65
2019-04-27T00:27:51.289Z,15.61
2019-04-27T00:30:23.462Z,15.57
2019-04-27T00:32:55.339Z,15.58
2019-04-27T00:35:31.625Z,15.56
2019-04-27T00:38:10.783Z,15.53
2019-04-27T00:40:46.896Z,15.54
2019-04-27T00:43:18.551Z,15.52
2019-04-27T00:45:50.381Z,15.52
2019-04-27T00:48:23.277Z,15.46
2019-04-27T00:50:55.098Z,15.35
2019-04-27T00:53:26.644Z,15.27
2019-04-27T00:56:03.934Z,15.26
2019-04-27T00:58:49.068Z,15.17
2019-04-27T01:01:31.062Z,15.09
2019-04-27T01:04:04.404Z,15.02
2019-04-27T01:06:36.091Z,14.89
2019-04-27T01:09:10.913Z,14.97
2019-04-27T01:11:43.545Z,14.80
2019-04-27T01:14:15.078Z,14.77
2019-04-27T01:16:46.683Z,14.72
2019-04-27T01:19:19.086Z,14.65
2019-04-27T01:21:50.775Z,14.57
2019-04-27T01:24:22.394Z,14.61
2019-04-27T01:27:10.843Z,14.56
2019-04-27T01:29:42.623Z,14.47
2019-04-27T01:32:15.845Z,14.42
2019-04-27T01:34:49.431Z,14.16
2019-04-27T01:37:21.688Z,14.12
2019-04-27T01:39:54.138Z,14.06
2019-04-27T01:42:25.717Z,13.96
2019-04-27T01:44:57.271Z,13.88
2019-04-27T01:47:29.033Z,13.83
2019-04-27T01:50:00.513Z,13.74
2019-04-27T01:52:32.280Z,13.83
2019-04-27T01:55:04.098Z,13.84
2019-04-27T01:57:35.680Z,13.84
2019-04-27T02:00:19.354Z,13.77
2019-04-27T02:02:52.710Z,13.80
2019-04-27T02:05:40.811Z,13.65
2019-04-27T02:08:12.524Z,13.51
2019-04-27T02:10:44.281Z,13.52
2019-04-27T02:13:16.002Z,13.56
2019-04-27T02:15:48.690Z,13.58
2019-04-27T02:18:20.541Z,13.54
2019-04-27T02:20:55.547Z,13.54
2019-04-27T02:23:26.968Z,13.46
2019-04-27T02:25:58.730Z,13.35
2019-04-27T02:28:35.300Z,13.44
2019-04-27T02:31:11.514Z,13.39
2019-04-27T02:33:50.044Z,13.26
2019-04-27T02:36:23.208Z,13.11
2019-04-27T02:38:54.813Z,13.31
2019-04-27T02:41:29.605Z,13.29
2019-04-27T02:44:11.405Z,13.28
2019-04-27T02:46:43.036Z,13.22
2019-04-27T02:49:14.484Z,13.22
2019-04-27T02:51:59.308Z,13.29
2019-04-27T02:54:30.382Z,13.26
2019-04-27T02:57:01.971Z,13.20
2019-04-27T02:59:33.394Z,13.33
2019-04-27T03:02:06.856Z,13.32
2019-04-27T03:04:39.907Z,13.22
2019-04-27T03:07:11.726Z,13.29
2019-04-27T03:09:43.292Z,13.31
2019-04-27T03:12:16.417Z,13.32
2019-04-27T03:14:52.114Z,13.26
2019-04-27T03:17:40.667Z,13.29
2019-04-27T03:20:13.785Z,13.30
2019-04-27T03:22:49.500Z,13.37
2019-04-27T03:25:22.251Z,13.39
2019-04-27T03:28:00.234Z,13.39
2019-04-27T03:30:35.809Z,13.38
2019-04-27T03:33:05.470Z,13.35
2019-04-27T03:35:38.623Z,13.26
2019-04-27T03:38:12.557Z,13.33
2019-04-27T03:40:43.879Z,13.42
2019-04-27T03:43:17.035Z,13.46
2019-04-27T03:45:52.020Z,13.46
2019-04-27T03:48:22.449Z,13.48
2019-04-27T03:51:10.680Z,13.54
2019-04-27T03:53:43.700Z,13.60
2019-04-27T03:56:25.548Z,13.63
2019-04-27T03:59:04.315Z,13.48
2019-04-27T04:01:35.827Z,13.53
2019-04-27T04:04:10.109Z,13.55
2019-04-27T04:06:41.004Z,13.59
2019-04-27T04:09:13.330Z,13.67
2019-04-27T04:11:46.383Z,13.68
2019-04-27T04:14:20.239Z,13.73
2019-04-27T04:17:03.176Z,13.76
2019-04-27T04:19:48.888Z,13.78
2019-04-27T04:22:10.269Z,13.83
2019-04-27T04:24:41.513Z,13.85
2019-04-27T04:27:13.110Z,13.92
2019-04-27T04:29:44.795Z,13.96
2019-04-27T04:32:16.345Z,14.01
2019-04-27T04:34:50.104Z,13.98
2019-04-27T04:37:21.169Z,14.04
2019-04-27T04:39:53.688Z,14.10
2019-04-27T04:42:27.041Z,14.17
2019-04-27T04:45:00.667Z,14.28
2019-04-27T04:47:36.607Z,14.33
2019-04-27T04:50:14.592Z,14.39
2019-04-27T04:52:42.427Z,14.46
2019-04-27T04:55:15.272Z,14.50
2019-04-27T04:57:49.113Z,14.54
2019-04-27T05:00:20.458Z,14.52
2019-04-27T05:02:52.303Z,14.42
2019-04-27T05:05:23.696Z,14.45
2019-04-27T05:07:54.998Z,14.51
2019-04-27T05:10:26.532Z,14.62
2019-04-27T05:12:59.054Z,14.76
2019-04-27T05:15:31.072Z,14.86
2019-04-27T05:18:02.446Z,15.04
2019-04-27T05:20:41.621Z,15.16
2019-04-27T05:23:13.219Z,15.33
2019-04-27T05:25:44.824Z,15.39
2019-04-27T05:28:16.210Z,15.38
2019-04-27T05:30:49.169Z,15.41
2019-04-27T05:33:20.705Z,15.49
2019-04-27T05:35:52.028Z,15.51
2019-04-27T05:38:23.291Z,15.49
2019-04-27T05:40:54.648Z,15.54
2019-04-27T05:43:31.754Z,15.59
2019-04-27T05:46:21.627Z,15.70
2019-04-27T05:48:53.106Z,15.71
2019-04-27T05:51:24.498Z,15.80
2019-04-27T05:53:56.005Z,15.89
2019-04-27T05:56:28.904Z,15.98
2019-04-27T05:59:00.622Z,15.91
2019-04-27T06:01:33.294Z,15.98
2019-04-27T06:04:05.940Z,16.08
2019-04-27T06:06:39.290Z,16.12
2019-04-27T06:09:10.853Z,16.15
2019-04-27T06:11:42.514Z,16.09
2019-04-27T06:14:14.182Z,16.06
2019-04-27T06:16:45.715Z,16.06
2019-04-27T06:19:19.218Z,16.14
2019-04-27T06:21:50.459Z,16.26
2019-04-27T06:24:22.093Z,16.60
2019-04-27T06:26:53.392Z,16.75
2019-04-27T06:29:24.787Z,16.87
2019-04-27T06:31:56.159Z,16.95
2019-04-27T06:34:28.745Z,16.99
2019-04-27T06:37:00.737Z,17.16
2019-04-27T06:39:32.219Z,17.43
2019-04-27T06:42:16.053Z,17.56
2019-04-27T06:44:36.875Z,17.78
2019-04-27T06:47:09.119Z,17.86
2019-04-27T06:49:40.737Z,17.85
2019-04-27T06:52:12.248Z,17.90
2019-04-27T06:54:43.586Z,17.64
2019-04-27T06:57:14.989Z,17.57
2019-04-27T06:59:46.530Z,17.73
2019-04-27T07:02:19.007Z,17.99
2019-04-27T07:04:50.784Z,18.06
2019-04-27T07:07:22.199Z,18.20
2019-04-27T07:09:53.694Z,18.33
2019-04-27T07:12:25.176Z,18.44
2019-04-27T07:14:56.688Z,18.58
2019-04-27T07:17:28.999Z,18.58
2019-04-27T07:20:00.984Z,18.68
2019-04-27T07:22:32.847Z,18.76
2019-04-27T07:25:05.670Z,18.93
2019-04-27T07:27:37.084Z,19.07
2019-04-27T07:30:11.803Z,19.16
2019-04-27T07:32:42.011Z,19.09
2019-04-27T07:35:15.844Z,19.22
2019-04-27T07:37:48.823Z,19.18
2019-04-27T07:40:20.479Z,19.21
2019-04-27T07:42:53.675Z,19.40
2019-04-27T07:45:35.673Z,19.43
2019-04-27T07:48:08.966Z,19.54
2019-04-27T07:50:41.240Z,19.81
2019-04-27T07:53:16.384Z,20.01
2019-04-27T07:55:49.430Z,20.12
2019-04-27T07:58:22.210Z,19.77
2019-04-27T08:00:54.135Z,20.07
2019-04-27T08:03:25.824Z,20.29
2019-04-27T08:05:58.803Z,20.48
2019-04-27T08:08:30.716Z,20.68
2019-04-27T08:11:05.070Z,20.80
2019-04-27T08:13:36.580Z,20.70
2019-04-27T08:16:09.447Z,20.73
2019-04-27T08:18:40.902Z,20.85
2019-04-27T08:21:14.391Z,20.97
2019-04-27T08:23:45.800Z,20.93
2019-04-27T08:26:22.021Z,20.81
2019-04-27T08:29:08.612Z,20.90
2019-04-27T08:31:42.473Z,20.92
2019-04-27T08:34:31.790Z,21.03
2019-04-27T08:37:04.213Z,21.01
2019-04-27T08:39:35.603Z,20.89
2019-04-27T08:42:09.383Z,20.97
2019-04-27T08:44:40.712Z,20.99
2019-04-27T08:47:13.578Z,21.01
2019-04-27T08:49:46.635Z,21.08
2019-04-27T08:52:19.410Z,21.27
2019-04-27T08:54:51.150Z,21.24
2019-04-27T08:57:23.700Z,21.18
2019-04-27T08:59:55.508Z,21.40
2019-04-27T09:02:39.714Z,21.50
2019-04-27T09:05:00.286Z,21.50
2019-04-27T09:07:36.441Z,21.47
2019-04-27T09:10:26.536Z,21.38
2019-04-27T09:13:08.948Z,21.33
2019-04-27T09:15:42.255Z,21.53
2019-04-27T09:18:16.515Z,21.58
2019-04-27T09:20:49.745Z,21.83
2019-04-27T09:23:21.205Z,21.76
2019-04-27T09:25:52.507Z,21.87
2019-04-27T09:28:24.070Z,22.02
2019-04-27T09:30:55.753Z,22.14
2019-04-27T09:33:27.205Z,22.02
2019-04-27T09:35:58.604Z,21.93
2019-04-27T09:38:30.213Z,21.80
2019-04-27T09:41:01.674Z,21.67
2019-04-27T09:43:34.058Z,21.57
2019-04-27T09:46:05.923Z,21.79
2019-04-27T09:48:37.444Z,22.08
2019-04-27T09:51:08.935Z,22.01
2019-04-27T09:53:41.499Z,22.11
2019-04-27T09:56:16.383Z,22.03
2019-04-27T09:58:47.954Z,22.19
2019-04-27T10:01:19.451Z,22.44
2019-04-27T10:03:52.499Z,22.63
2019-04-27T10:06:24.263Z,22.25
2019-04-27T10:08:57.751Z,22.35
2019-04-27T10:11:29.590Z,22.50
2019-04-27T10:14:01.264Z,22.43
2019-04-27T10:16:33.110Z,22.23
2019-04-27T10:19:04.815Z,22.20
2019-04-27T10:21:37.530Z,22.22
2019-04-27T10:24:10.250Z,22.23
2019-04-27T10:26:43.814Z,22.34
2019-04-27T10:29:16.191Z,22.51
2019-04-27T10:31:48.285Z,22.64
2019-04-27T10:34:20.968Z,22.85
2019-04-27T10:36:52.586Z,22.84
2019-04-27T10:39:27.422Z,22.85
2019-04-27T10:41:58.256Z,22.83
2019-04-27T10:44:29.948Z,22.72
2019-04-27T10:47:01.565Z,22.90
2019-04-27T10:49:33.370Z,22.84
2019-04-27T10:52:05.912Z,22.57
2019-04-27T10:54:37.595Z,22.72
2019-04-27T10:57:09.011Z,23.07
2019-04-27T10:59:40.550Z,23.20
2019-04-27T11:02:12.003Z,23.13
2019-04-27T11:04:47.631Z,23.24
2019-04-27T11:07:23.481Z,23.13
2019-04-27T11:09:54.913Z,23.21
2019-04-27T11:12:26.359Z,23.29
2019-04-27T11:14:57.885Z,23.22
2019-04-27T11:17:29.420Z,23.15
2019-04-27T11:20:02.781Z,23.21
2019-04-27T11:22:36.187Z,23.45
2019-04-27T11:25:08.796Z,23.22
2019-04-27T11:27:40.253Z,23.02
2019-04-27T11:30:13.489Z,23.15
2019-04-27T11:32:45.103Z,23.19
2019-04-27T11:35:21.248Z,23.23
2019-04-27T11:37:55.678Z,23.40
2019-04-27T11:40:28.944Z,23.44
2019-04-27T11:43:00.463Z,23.67
2019-04-27T11:45:33.001Z,23.38
2019-04-27T11:48:05.801Z,23.22
2019-04-27T11:50:37.453Z,23.21
2019-04-27T11:53:19.822Z,23.37
2019-04-27T11:55:43.128Z,23.67
2019-04-27T11:58:16.389Z,23.63
2019-04-27T12:00:49.622Z,23.72
2019-04-27T12:03:21.381Z,23.47
2019-04-27T12:05:52.823Z,23.55
2019-04-27T12:08:24.361Z,23.35
2019-04-27T12:10:55.850Z,23.48
2019-04-27T12:13:28.004Z,23.42
2019-04-27T12:15:59.450Z,23.34
2019-04-27T12:18:31.014Z,23.50
2019-04-27T12:21:02.548Z,23.71
2019-04-27T12:23:37.062Z,23.70
2019-04-27T12:26:08.558Z,23.92
2019-04-27T12:28:41.878Z,23.83
2019-04-27T12:31:19.360Z,23.64
2019-04-27T12:33:50.939Z,23.60
2019-04-27T12:36:22.429Z,23.67
2019-04-27T12:38:56.613Z,23.47
2019-04-27T12:41:29.303Z,23.43
2019-04-27T12:44:00.768Z,23.51
2019-04-27T12:46:32.169Z,23.63
2019-04-27T12:49:03.700Z,23.64
2019-04-27T12:51:35.589Z,23.69
2019-04-27T12:54:10.077Z,23.83
2019-04-27T12:56:45.920Z,23.65
2019-04-27T12:59:19.079Z,23.73
2019-04-27T13:01:50.594Z,23.82
2019-04-27T13:04:22.222Z,23.80
2019-04-27T13:06:55.845Z,23.78
2019-04-27T13:09:27.338Z,23.70
2019-04-27T13:12:00.462Z,23.78
2019-04-27T13:14:31.972Z,23.95
2019-04-27T13:17:06.275Z,24.10
2019-04-27T13:19:37.879Z,24.12
2019-04-27T13:22:09.662Z,24.20
2019-04-27T13:24:41.021Z,24.16
2019-04-27T13:27:12.500Z,24.18
2019-04-27T13:29:43.972Z,23.92
2019-04-27T13:32:16.428Z,24.00
2019-04-27T13:34:47.888Z,24.16
2019-04-27T13:37:34.103Z,24.17
2019-04-27T13:40:09.562Z,24.00
2019-04-27T13:42:44.039Z,24.14
2019-04-27T13:45:32.229Z,24.23
2019-04-27T13:48:11.250Z,24.26
2019-04-27T13:50:50.654Z,24.44
2019-04-27T13:53:22.210Z,24.43
2019-04-27T13:55:53.770Z,24.19
2019-04-27T13:58:25.523Z,24.15
2019-04-27T14:00:56.956Z,24.19
2019-04-27T14:03:28.520Z,23.98
2019-04-27T14:06:01.103Z,23.90
2019-04-27T14:08:32.856Z,23.92
2019-04-27T14:11:04.547Z,23.87
2019-04-27T14:13:36.091Z,23.87
2019-04-27T14:16:08.661Z,23.89
2019-04-27T14:18:40.336Z,23.90
2019-04-27T14:21:11.899Z,23.89
2019-04-27T14:23:43.510Z,24.01
2019-04-27T14:26:14.895Z,23.99
2019-04-27T14:28:48.074Z,23.94
2019-04-27T14:31:20.842Z,23.94
2019-04-27T14:33:53.397Z,23.87
2019-04-27T14:36:24.778Z,23.84
2019-04-27T14:38:56.325Z,23.82
2019-04-27T14:41:28.210Z,23.58
2019-04-27T14:44:08.142Z,23.66
2019-04-27T14:46:33.171Z,23.63
2019-04-27T14:49:04.604Z,23.79
2019-04-27T14:51:36.099Z,23.80
2019-04-27T14:54:09.292Z,23.81
2019-04-27T14:56:48.765Z,23.85
2019-04-27T14:59:21.571Z,23.81
2019-04-27T15:01:54.147Z,23.81
2019-04-27T15:04:27.116Z,23.90
2019-04-27T15:06:59.143Z,23.86
2019-04-27T15:09:30.811Z,24.01
2019-04-27T15:12:02.318Z,24.03
2019-04-27T15:14:33.921Z,23.85
2019-04-27T15:17:06.830Z,23.79
2019-04-27T15:19:40.329Z,23.70
2019-04-27T15:22:19.741Z,23.53
2019-04-27T15:24:48.960Z,23.25
2019-04-27T15:27:21.304Z,23.25
2019-04-27T15:29:55.795Z,23.25
2019-04-27T15:32:33.541Z,23.13
2019-04-27T15:35:09.793Z,22.92
2019-04-27T15:37:43.261Z,22.86
2019-04-27T15:40:31.910Z,22.80
2019-04-27T15:43:04.928Z,22.65
2019-04-27T15:45:38.927Z,22.59
2019-04-27T15:48:10.437Z,22.58
2019-04-27T15:50:43.622Z,22.50
2019-04-27T15:53:15.083Z,22.50
2019-04-27T15:55:46.397Z,22.39
2019-04-27T15:58:24.991Z,22.31
2019-04-27T16:01:02.397Z,22.26
2019-04-27T16:03:32.940Z,22.18
2019-04-27T16:06:08.133Z,22.10
2019-04-27T16:08:45.123Z,22.05
2019-04-27T16:11:16.401Z,21.99
2019-04-27T16:13:46.269Z,21.92
2019-04-27T16:16:19.402Z,21.90
2019-04-27T16:18:53.520Z,21.81
2019-04-27T16:21:25.196Z,21.71
2019-04-27T16:23:58.183Z,21.65
2019-04-27T16:26:29.706Z,21.58
2019-04-27T16:29:01.130Z,21.49
2019-04-27T16:31:34.729Z,21.46
2019-04-27T16:34:05.941Z,21.44
2019-04-27T16:36:43.433Z,21.35
2019-04-27T16:39:10.819Z,21.25
2019-04-27T16:41:43.886Z,21.15
2019-04-27T16:44:15.559Z,21.06
2019-04-27T16:46:48.590Z,21.02
2019-04-27T16:49:20.893Z,21.02
2019-04-27T16:51:53.374Z,20.95
2019-04-27T16:54:24.794Z,20.87
2019-04-27T16:57:03.232Z,20.82
2019-04-27T16:59:43.287Z,20.74
2019-04-27T17:02:02.942Z,20.74
2019-04-27T17:04:34.514Z,20.70
2019-04-27T17:07:05.984Z,20.69
2019-04-27T17:09:44.638Z,20.63
2019-04-27T17:12:10.628Z,20.55
2019-04-27T17:14:49.477Z,20.47
2019-04-27T17:17:42.709Z,20.47
2019-04-27T17:20:19.641Z,20.46
2019-04-27T17:22:50.253Z,20.42
2019-04-27T17:25:23.287Z,20.34
2019-04-27T17:27:57.750Z,20.28
2019-04-27T17:30:32.473Z,20.20
2019-04-27T17:33:14.559Z,20.14
2019-04-27T17:35:43.817Z,20.08
2019-04-27T17:38:16.477Z,19.99
2019-04-27T17:40:51.790Z,19.92
2019-04-27T17:43:22.884Z,19.88
2019-04-27T17:45:54.357Z,19.80
2019-04-27T17:48:25.997Z,19.73
2019-04-27T17:51:02.566Z,19.65
2019-04-27T17:53:33.096Z,19.60
2019-04-27T17:56:05.938Z,19.58
2019-04-27T17:58:39.695Z,19.52
2019-04-27T18:01:18.143Z,19.48
2019-04-27T18:03:44.433Z,19.46
2019-04-27T18:06:15.871Z,19.46
2019-04-27T18:08:48.584Z,19.40
2019-04-27T18:11:21.595Z,19.40
2019-04-27T18:13:55.819Z,19.38
2019-04-27T18:16:30.451Z,19.39
2019-04-27T18:19:07.821Z,19.35
2019-04-27T18:21:38.642Z,19.32
2019-04-27T18:24:15.298Z,19.27
2019-04-27T18:26:56.469Z,19.26
2019-04-27T18:29:29.366Z,19.22
2019-04-27T18:31:58.274Z,19.24
2019-04-27T18:34:29.833Z,19.23
2019-04-27T18:37:04.322Z,19.21
2019-04-27T18:39:38.491Z,19.19
2019-04-27T18:42:10.721Z,19.20
2019-04-27T18:44:42.274Z,19.19
2019-04-27T18:47:13.671Z,19.20
2019-04-27T18:50:07.363Z,19.22
2019-04-27T18:52:50.037Z,19.21
2019-04-27T18:55:21.061Z,19.22
2019-04-27T18:57:54.472Z,19.22
2019-04-27T19:00:25.853Z,19.19
2019-04-27T19:02:58.449Z,19.20
2019-04-27T19:05:39.962Z,19.14
2019-04-27T19:08:03.499Z,19.09
2019-04-27T19:10:35.982Z,19.07
2019-04-27T19:13:08.820Z,19.03
2019-04-27T19:15:40.317Z,19.04
2019-04-27T19:18:11.986Z,19.04
2019-04-27T19:20:43.495Z,19.03
2019-04-27T19:23:15.205Z,19.04
2019-04-27T19:26:06.482Z,19.06
2019-04-27T19:28:39.640Z,19.04
2019-04-27T19:31:15.587Z,19.05
2019-04-27T19:33:48.137Z,19.03
2019-04-27T19:36:19.642Z,19.06
2019-04-27T19:38:51.244Z,19.01
2019-04-27T19:41:22.902Z,18.99
2019-04-27T19:43:54.445Z,18.99
2019-04-27T19:46:26.041Z,19.02
2019-04-27T19:48:59.051Z,19.02
2019-04-27T19:51:32.845Z,19.06
2019-04-27T19:54:04.368Z,19.08
2019-04-27T19:56:38.384Z,19.06
2019-04-27T19:59:14.432Z,19.08
2019-04-27T20:01:48.097Z,19.07
2019-04-27T20:04:27.292Z,19.09
2019-04-27T20:06:59.086Z,19.09
2019-04-27T20:09:45.912Z,19.06
2019-04-27T20:12:17.391Z,19.02
2019-04-27T20:14:57.899Z,19.02
2019-04-27T20:17:31.427Z,18.93
2019-04-27T20:20:03.762Z,19.00
2019-04-27T20:22:35.588Z,19.02
2019-04-27T20:25:07.510Z,19.03
2019-04-27T20:27:46.729Z,19.01
2019-04-27T20:30:13.466Z,19.01
2019-04-27T20:32:47.594Z,19.01
2019-04-27T20:35:18.977Z,19.00
2019-04-27T20:37:51.880Z,18.98
2019-04-27T20:40:23.592Z,19.00
2019-04-27T20:42:55.242Z,19.03
2019-04-27T20:45:26.727Z,19.02
2019-04-27T20:48:01.035Z,18.99
2019-04-27T20:50:32.926Z,19.01
2019-04-27T20:53:10.650Z,19.02
2019-04-27T20:58:31.527Z,19.09
2019-04-27T21:01:03.283Z,19.10
2019-04-27T21:03:36.402Z,19.07
2019-04-27T21:06:24.600Z,19.11
2019-04-27T21:08:56.180Z,19.12
2019-04-27T21:11:30.859Z,19.11
2019-04-27T21:14:02.389Z,19.06
2019-04-27T21:16:33.817Z,19.11
2019-04-27T21:19:05.222Z,19.10
2019-04-27T21:21:37.987Z,19.14
2019-04-27T21:24:09.518Z,19.11
2019-04-27T21:26:41.976Z,19.16
2019-04-27T21:29:13.643Z,19.10
2019-04-27T21:31:45.120Z,19.10
2019-04-27T21:34:16.743Z,19.01
2019-04-27T21:36:48.291Z,19.03
2019-04-27T21:39:21.702Z,19.01
2019-04-27T21:41:53.264Z,18.97
2019-04-27T21:44:24.784Z,18.92
2019-04-27T21:46:56.331Z,18.84
2019-04-27T21:49:28.839Z,18.84
2019-04-27T21:52:03.888Z,18.77
2019-04-27T21:54:37.038Z,18.74
2019-04-27T21:57:08.487Z,18.74
2019-04-27T21:59:39.944Z,18.74
2019-04-27T22:02:12.411Z,18.74
2019-04-27T22:04:43.964Z,18.69
2019-04-27T22:07:15.527Z,18.69
2019-04-27T22:09:47.186Z,18.72
2019-04-27T22:12:21.319Z,18.66
2019-04-27T22:14:53.192Z,18.67
2019-04-27T22:17:24.662Z,18.64
2019-04-27T22:19:57.046Z,18.61
2019-04-27T22:22:31.422Z,18.58
2019-04-27T22:25:07.935Z,18.59
2019-04-27T22:27:41.174Z,18.61
2019-04-27T22:30:12.962Z,18.57
2019-04-27T22:32:44.495Z,18.61
2019-04-27T22:35:15.855Z,18.64
2019-04-27T22:37:47.352Z,18.63
2019-04-27T22:40:36.570Z,18.63
2019-04-27T22:43:09.736Z,18.62
2019-04-27T22:45:42.933Z,18.61
2019-04-27T22:48:14.349Z,18.56
2019-04-27T22:50:45.923Z,18.51
2019-04-27T22:53:17.609Z,18.50
2019-04-27T22:56:07.161Z,18.48
2019-04-27T22:58:40.694Z,18.47
2019-04-27T23:01:30.873Z,18.44
2019-04-27T23:04:04.165Z,18.42
2019-04-27T23:06:35.664Z,18.39
2019-04-27T23:09:07.414Z,18.37
2019-04-27T23:11:41.522Z,18.35
2019-04-27T23:14:13.080Z,18.36
2019-04-27T23:16:49.277Z,18.36
2019-04-27T23:19:21.057Z,18.34
2019-04-27T23:21:53.201Z,18.29
2019-04-27T23:24:24.813Z,18.29
2019-04-27T23:26:56.506Z,18.31
2019-04-27T23:29:28.099Z,18.31
2019-04-27T23:32:07.333Z,18.28
2019-04-27T23:34:38.878Z,18.28
2019-04-27T23:37:10.336Z,18.28
2019-04-27T23:39:41.751Z,18.26
2019-04-27T23:42:13.211Z,18.19
2019-04-27T23:44:44.730Z,18.20
2019-04-27T23:47:16.325Z,18.19
2019-04-27T23:49:47.848Z,18.16
2019-04-27T23:52:21.195Z,18.19
2019-04-27T23:54:52.685Z,18.08
2019-04-27T23:57:24.177Z,18.12
2019-04-27T23:59:55.720Z,18.12
